sensor_id;sensor_type;location;lat;lon;timestamp;temperature;humidity
1351;DHT22;669;50.206;9.998;2024-01-07T00:02:23;4.50;44.70
1351;DHT22;669;50.206;9.998;2024-01-07T00:04:52;4.40;44.00
1351;DHT22;669;50.206;9.998;2024-01-07T00:07:20;4.40;43.80
1351;DHT22;669;50.206;9.998;2024-01-07T00:09:48;4.40;43.90
1351;DHT22;669;50.206;9.998;2024-01-07T00:12:16;4.40;43.70
1351;DHT22;669;50.206;9.998;2024-01-07T00:14:44;4.50;43.90
1351;DHT22;669;50.206;9.998;2024-01-07T00:17:12;4.50;43.20
1351;DHT22;669;50.206;9.998;2024-01-07T00:19:40;4.50;42.70
1351;DHT22;669;50.206;9.998;2024-01-07T00:22:10;4.50;42.20
1351;DHT22;669;50.206;9.998;2024-01-07T00:24:38;4.50;42.00
1351;DHT22;669;50.206;9.998;2024-01-07T00:27:06;4.50;41.40
1351;DHT22;669;50.206;9.998;2024-01-07T00:29:35;4.50;41.20
1351;DHT22;669;50.206;9.998;2024-01-07T00:32:04;4.50;41.20
1351;DHT22;669;50.206;9.998;2024-01-07T00:34:32;4.50;41.00
1351;DHT22;669;50.206;9.998;2024-01-07T00:37:00;4.50;40.80
1351;DHT22;669;50.206;9.998;2024-01-07T00:39:29;4.50;40.50
1351;DHT22;669;50.206;9.998;2024-01-07T00:41:58;4.50;40.20
1351;DHT22;669;50.206;9.998;2024-01-07T00:44:26;4.50;40.20
1351;DHT22;669;50.206;9.998;2024-01-07T00:46:54;4.50;40.30
1351;DHT22;669;50.206;9.998;2024-01-07T00:49:21;4.50;40.20
1351;DHT22;669;50.206;9.998;2024-01-07T00:51:49;4.50;40.30
1351;DHT22;669;50.206;9.998;2024-01-07T00:54:17;4.50;40.40
1351;DHT22;669;50.206;9.998;2024-01-07T00:56:47;4.60;40.40
1351;DHT22;669;50.206;9.998;2024-01-07T00:59:15;4.60;39.80
1351;DHT22;669;50.206;9.998;2024-01-07T01:01:42;4.60;39.40
1351;DHT22;669;50.206;9.998;2024-01-07T01:04:11;4.60;39.00
1351;DHT22;669;50.206;9.998;2024-01-07T01:06:39;4.60;37.60
1351;DHT22;669;50.206;9.998;2024-01-07T01:09:07;4.60;37.60
1351;DHT22;669;50.206;9.998;2024-01-07T01:11:35;4.60;37.60
1351;DHT22;669;50.206;9.998;2024-01-07T01:14:04;4.60;37.60
1351;DHT22;669;50.206;9.998;2024-01-07T01:16:32;4.60;37.60
1351;DHT22;669;50.206;9.998;2024-01-07T01:19:00;4.60;37.30
1351;DHT22;669;50.206;9.998;2024-01-07T01:21:28;4.60;36.00
1351;DHT22;669;50.206;9.998;2024-01-07T01:23:56;4.60;35.80
1351;DHT22;669;50.206;9.998;2024-01-07T01:26:24;4.60;35.30
1351;DHT22;669;50.206;9.998;2024-01-07T01:28:52;4.60;34.30
1351;DHT22;669;50.206;9.998;2024-01-07T01:31:21;4.60;33.40
1351;DHT22;669;50.206;9.998;2024-01-07T01:33:50;4.50;32.80
1351;DHT22;669;50.206;9.998;2024-01-07T01:36:18;4.60;32.90
1351;DHT22;669;50.206;9.998;2024-01-07T01:38:46;4.50;32.30
1351;DHT22;669;50.206;9.998;2024-01-07T01:41:15;4.50;32.00
1351;DHT22;669;50.206;9.998;2024-01-07T01:43:43;4.50;31.20
1351;DHT22;669;50.206;9.998;2024-01-07T01:46:11;4.50;30.20
1351;DHT22;669;50.206;9.998;2024-01-07T01:48:41;4.40;30.00
1351;DHT22;669;50.206;9.998;2024-01-07T01:51:10;4.40;29.40
1351;DHT22;669;50.206;9.998;2024-01-07T01:53:38;4.40;29.40
1351;DHT22;669;50.206;9.998;2024-01-07T01:56:06;4.40;28.90
1351;DHT22;669;50.206;9.998;2024-01-07T01:58:35;4.40;28.70
1351;DHT22;669;50.206;9.998;2024-01-07T02:01:03;4.40;28.40
1351;DHT22;669;50.206;9.998;2024-01-07T02:03:32;4.40;28.40
1351;DHT22;669;50.206;9.998;2024-01-07T02:06:01;4.40;27.40
1351;DHT22;669;50.206;9.998;2024-01-07T02:08:30;4.30;27.40
1351;DHT22;669;50.206;9.998;2024-01-07T02:10:58;4.30;27.60
1351;DHT22;669;50.206;9.998;2024-01-07T02:13:26;4.30;27.20
1351;DHT22;669;50.206;9.998;2024-01-07T02:15:53;4.30;27.20
1351;DHT22;669;50.206;9.998;2024-01-07T02:18:21;4.30;27.00
1351;DHT22;669;50.206;9.998;2024-01-07T02:20:49;4.30;26.50
1351;DHT22;669;50.206;9.998;2024-01-07T02:23:19;4.20;25.60
1351;DHT22;669;50.206;9.998;2024-01-07T02:25:48;4.20;25.60
1351;DHT22;669;50.206;9.998;2024-01-07T02:28:16;4.20;25.90
1351;DHT22;669;50.206;9.998;2024-01-07T02:30:44;4.20;26.20
1351;DHT22;669;50.206;9.998;2024-01-07T02:33:12;4.20;26.20
1351;DHT22;669;50.206;9.998;2024-01-07T02:35:40;4.20;26.30
1351;DHT22;669;50.206;9.998;2024-01-07T02:38:08;4.10;26.30
1351;DHT22;669;50.206;9.998;2024-01-07T02:40:36;4.20;25.90
1351;DHT22;669;50.206;9.998;2024-01-07T02:43:05;4.20;25.80
1351;DHT22;669;50.206;9.998;2024-01-07T02:45:33;4.10;24.50
1351;DHT22;669;50.206;9.998;2024-01-07T02:48:01;4.10;24.70
1351;DHT22;669;50.206;9.998;2024-01-07T02:50:29;4.10;24.40
1351;DHT22;669;50.206;9.998;2024-01-07T02:52:57;4.10;24.50
1351;DHT22;669;50.206;9.998;2024-01-07T02:55:25;4.10;24.30
1351;DHT22;669;50.206;9.998;2024-01-07T02:57:53;4.10;24.50
1351;DHT22;669;50.206;9.998;2024-01-07T03:00:22;4.00;24.40
1351;DHT22;669;50.206;9.998;2024-01-07T03:02:50;4.00;24.40
1351;DHT22;669;50.206;9.998;2024-01-07T03:05:20;4.00;24.40
1351;DHT22;669;50.206;9.998;2024-01-07T03:07:48;4.00;24.50
1351;DHT22;669;50.206;9.998;2024-01-07T03:10:15;4.00;24.00
1351;DHT22;669;50.206;9.998;2024-01-07T03:12:43;4.00;24.20
1351;DHT22;669;50.206;9.998;2024-01-07T03:15:12;3.90;23.70
1351;DHT22;669;50.206;9.998;2024-01-07T03:17:41;3.90;24.00
1351;DHT22;669;50.206;9.998;2024-01-07T03:20:10;3.90;24.40
1351;DHT22;669;50.206;9.998;2024-01-07T03:22:38;3.80;24.10
1351;DHT22;669;50.206;9.998;2024-01-07T03:25:07;3.80;24.30
1351;DHT22;669;50.206;9.998;2024-01-07T03:27:35;3.80;24.10
1351;DHT22;669;50.206;9.998;2024-01-07T03:30:04;3.80;23.90
1351;DHT22;669;50.206;9.998;2024-01-07T03:32:32;3.80;23.90
1351;DHT22;669;50.206;9.998;2024-01-07T03:35:02;3.80;23.90
1351;DHT22;669;50.206;9.998;2024-01-07T03:37:30;3.70;23.30
1351;DHT22;669;50.206;9.998;2024-01-07T03:39:58;3.70;23.10
1351;DHT22;669;50.206;9.998;2024-01-07T03:42:26;3.70;23.10
1351;DHT22;669;50.206;9.998;2024-01-07T03:44:54;3.70;23.80
1351;DHT22;669;50.206;9.998;2024-01-07T03:47:22;3.60;22.50
1351;DHT22;669;50.206;9.998;2024-01-07T03:49:50;3.60;22.70
1351;DHT22;669;50.206;9.998;2024-01-07T03:52:20;3.60;22.80
1351;DHT22;669;50.206;9.998;2024-01-07T03:54:48;3.50;22.50
1351;DHT22;669;50.206;9.998;2024-01-07T03:57:16;3.50;22.60
1351;DHT22;669;50.206;9.998;2024-01-07T03:59:43;3.50;22.40
1351;DHT22;669;50.206;9.998;2024-01-07T04:02:11;3.50;21.60
1351;DHT22;669;50.206;9.998;2024-01-07T04:04:43;3.50;22.40
1351;DHT22;669;50.206;9.998;2024-01-07T04:07:11;3.50;22.20
1351;DHT22;669;50.206;9.998;2024-01-07T04:09:42;3.50;22.00
1351;DHT22;669;50.206;9.998;2024-01-07T04:12:10;3.40;21.60
1351;DHT22;669;50.206;9.998;2024-01-07T04:14:38;3.40;21.00
1351;DHT22;669;50.206;9.998;2024-01-07T04:17:06;3.40;20.20
1351;DHT22;669;50.206;9.998;2024-01-07T04:19:36;3.40;20.70
1351;DHT22;669;50.206;9.998;2024-01-07T04:22:05;3.30;21.10
1351;DHT22;669;50.206;9.998;2024-01-07T04:24:33;3.30;20.60
1351;DHT22;669;50.206;9.998;2024-01-07T04:27:03;3.30;20.20
1351;DHT22;669;50.206;9.998;2024-01-07T04:29:31;3.30;20.20
1351;DHT22;669;50.206;9.998;2024-01-07T04:31:59;3.20;20.00
1351;DHT22;669;50.206;9.998;2024-01-07T04:34:27;3.20;19.40
1351;DHT22;669;50.206;9.998;2024-01-07T04:36:55;3.20;20.10
1351;DHT22;669;50.206;9.998;2024-01-07T04:39:23;3.20;19.40
1351;DHT22;669;50.206;9.998;2024-01-07T04:41:51;3.20;19.40
1351;DHT22;669;50.206;9.998;2024-01-07T04:44:20;3.10;20.10
1351;DHT22;669;50.206;9.998;2024-01-07T04:46:48;3.10;19.20
1351;DHT22;669;50.206;9.998;2024-01-07T04:49:16;3.10;19.20
1351;DHT22;669;50.206;9.998;2024-01-07T04:51:44;3.10;19.10
1351;DHT22;669;50.206;9.998;2024-01-07T04:54:12;3.00;19.30
1351;DHT22;669;50.206;9.998;2024-01-07T04:56:40;3.00;19.70
1351;DHT22;669;50.206;9.998;2024-01-07T04:59:08;2.90;18.80
1351;DHT22;669;50.206;9.998;2024-01-07T05:01:37;2.90;19.00
1351;DHT22;669;50.206;9.998;2024-01-07T05:04:06;2.90;19.60
1351;DHT22;669;50.206;9.998;2024-01-07T05:06:34;2.80;19.90
1351;DHT22;669;50.206;9.998;2024-01-07T05:09:02;2.80;19.90
1351;DHT22;669;50.206;9.998;2024-01-07T05:11:30;2.80;19.90
1351;DHT22;669;50.206;9.998;2024-01-07T05:13:58;2.80;19.90
1351;DHT22;669;50.206;9.998;2024-01-07T05:16:26;2.80;19.30
1351;DHT22;669;50.206;9.998;2024-01-07T05:18:55;2.70;19.60
1351;DHT22;669;50.206;9.998;2024-01-07T05:21:23;2.70;19.50
1351;DHT22;669;50.206;9.998;2024-01-07T05:23:51;2.60;18.00
1351;DHT22;669;50.206;9.998;2024-01-07T05:26:19;2.60;18.10
1351;DHT22;669;50.206;9.998;2024-01-07T05:28:47;2.50;17.00
1351;DHT22;669;50.206;9.998;2024-01-07T05:31:15;2.40;18.10
1351;DHT22;669;50.206;9.998;2024-01-07T05:33:43;2.40;17.60
1351;DHT22;669;50.206;9.998;2024-01-07T05:36:13;2.30;17.40
1351;DHT22;669;50.206;9.998;2024-01-07T05:38:42;2.20;17.00
1351;DHT22;669;50.206;9.998;2024-01-07T05:41:10;2.20;17.20
1351;DHT22;669;50.206;9.998;2024-01-07T05:43:37;2.20;17.60
1351;DHT22;669;50.206;9.998;2024-01-07T05:46:05;2.10;17.40
1351;DHT22;669;50.206;9.998;2024-01-07T05:48:41;2.10;18.20
1351;DHT22;669;50.206;9.998;2024-01-07T05:51:10;2.10;18.10
1351;DHT22;669;50.206;9.998;2024-01-07T05:53:39;2.00;17.70
1351;DHT22;669;50.206;9.998;2024-01-07T05:56:07;2.00;17.90
1351;DHT22;669;50.206;9.998;2024-01-07T05:58:35;2.00;17.10
1351;DHT22;669;50.206;9.998;2024-01-07T06:01:03;2.00;17.40
1351;DHT22;669;50.206;9.998;2024-01-07T06:03:31;1.90;17.60
1351;DHT22;669;50.206;9.998;2024-01-07T06:06:00;1.90;18.10
1351;DHT22;669;50.206;9.998;2024-01-07T06:08:28;2.00;18.30
1351;DHT22;669;50.206;9.998;2024-01-07T06:10:57;1.90;17.10
1351;DHT22;669;50.206;9.998;2024-01-07T06:13:25;1.90;16.70
1351;DHT22;669;50.206;9.998;2024-01-07T06:15:53;1.80;16.50
1351;DHT22;669;50.206;9.998;2024-01-07T06:18:21;1.80;16.00
1351;DHT22;669;50.206;9.998;2024-01-07T06:20:49;1.80;16.00
1351;DHT22;669;50.206;9.998;2024-01-07T06:23:17;1.80;16.70
1351;DHT22;669;50.206;9.998;2024-01-07T06:25:45;1.70;16.70
1351;DHT22;669;50.206;9.998;2024-01-07T06:28:15;1.70;16.60
1351;DHT22;669;50.206;9.998;2024-01-07T06:30:43;1.70;16.30
1351;DHT22;669;50.206;9.998;2024-01-07T06:33:11;1.70;16.50
1351;DHT22;669;50.206;9.998;2024-01-07T06:35:39;1.70;16.20
1351;DHT22;669;50.206;9.998;2024-01-07T06:38:07;1.70;16.70
1351;DHT22;669;50.206;9.998;2024-01-07T06:40:35;1.70;16.60
1351;DHT22;669;50.206;9.998;2024-01-07T06:43:03;1.70;16.70
1351;DHT22;669;50.206;9.998;2024-01-07T06:45:33;1.70;16.60
1351;DHT22;669;50.206;9.998;2024-01-07T06:48:01;1.70;16.70
1351;DHT22;669;50.206;9.998;2024-01-07T06:50:29;1.70;16.40
1351;DHT22;669;50.206;9.998;2024-01-07T06:52:57;1.70;16.20
1351;DHT22;669;50.206;9.998;2024-01-07T06:55:25;1.70;15.30
1351;DHT22;669;50.206;9.998;2024-01-07T06:57:53;1.70;15.30
1351;DHT22;669;50.206;9.998;2024-01-07T07:00:21;1.60;14.30
1351;DHT22;669;50.206;9.998;2024-01-07T07:02:51;1.60;14.30
1351;DHT22;669;50.206;9.998;2024-01-07T07:05:19;1.60;14.10
1351;DHT22;669;50.206;9.998;2024-01-07T07:07:46;1.60;14.20
1351;DHT22;669;50.206;9.998;2024-01-07T07:10:17;1.60;14.40
1351;DHT22;669;50.206;9.998;2024-01-07T07:12:45;1.60;14.00
1351;DHT22;669;50.206;9.998;2024-01-07T07:15:13;1.60;13.70
1351;DHT22;669;50.206;9.998;2024-01-07T07:17:41;1.60;13.80
1351;DHT22;669;50.206;9.998;2024-01-07T07:20:11;1.60;13.00
1351;DHT22;669;50.206;9.998;2024-01-07T07:22:39;1.60;13.10
1351;DHT22;669;50.206;9.998;2024-01-07T07:25:08;1.60;12.70
1351;DHT22;669;50.206;9.998;2024-01-07T07:27:36;1.50;12.70
1351;DHT22;669;50.206;9.998;2024-01-07T07:30:05;1.50;12.20
1351;DHT22;669;50.206;9.998;2024-01-07T07:32:33;1.50;11.70
1351;DHT22;669;50.206;9.998;2024-01-07T07:35:02;1.40;12.50
1351;DHT22;669;50.206;9.998;2024-01-07T07:37:32;1.40;12.30
1351;DHT22;669;50.206;9.998;2024-01-07T07:40:00;1.40;11.90
1351;DHT22;669;50.206;9.998;2024-01-07T07:42:28;1.40;11.60
1351;DHT22;669;50.206;9.998;2024-01-07T07:44:57;1.40;12.10
1351;DHT22;669;50.206;9.998;2024-01-07T07:47:25;1.40;11.90
1351;DHT22;669;50.206;9.998;2024-01-07T07:49:53;1.40;12.60
1351;DHT22;669;50.206;9.998;2024-01-07T07:52:21;1.40;12.30
1351;DHT22;669;50.206;9.998;2024-01-07T07:54:54;1.40;12.80
1351;DHT22;669;50.206;9.998;2024-01-07T07:57:22;1.40;12.80
1351;DHT22;669;50.206;9.998;2024-01-07T07:59:52;1.40;12.90
1351;DHT22;669;50.206;9.998;2024-01-07T08:02:20;1.40;12.70
1351;DHT22;669;50.206;9.998;2024-01-07T08:04:48;1.40;12.30
1351;DHT22;669;50.206;9.998;2024-01-07T08:07:17;1.30;12.20
1351;DHT22;669;50.206;9.998;2024-01-07T08:09:45;1.30;13.00
1351;DHT22;669;50.206;9.998;2024-01-07T08:12:15;1.40;13.10
1351;DHT22;669;50.206;9.998;2024-01-07T08:14:43;1.40;13.40
1351;DHT22;669;50.206;9.998;2024-01-07T08:17:11;1.40;12.50
1351;DHT22;669;50.206;9.998;2024-01-07T08:19:39;1.30;12.30
1351;DHT22;669;50.206;9.998;2024-01-07T08:22:07;1.30;13.20
1351;DHT22;669;50.206;9.998;2024-01-07T08:24:36;1.30;13.50
1351;DHT22;669;50.206;9.998;2024-01-07T08:27:04;1.30;12.60
1351;DHT22;669;50.206;9.998;2024-01-07T08:29:34;1.30;12.50
1351;DHT22;669;50.206;9.998;2024-01-07T08:32:02;1.30;13.20
1351;DHT22;669;50.206;9.998;2024-01-07T08:34:30;1.20;12.40
1351;DHT22;669;50.206;9.998;2024-01-07T08:36:58;1.20;12.10
1351;DHT22;669;50.206;9.998;2024-01-07T08:39:26;1.20;12.90
1351;DHT22;669;50.206;9.998;2024-01-07T08:41:55;1.20;13.50
1351;DHT22;669;50.206;9.998;2024-01-07T08:44:25;1.20;13.20
1351;DHT22;669;50.206;9.998;2024-01-07T08:46:54;1.10;12.00
1351;DHT22;669;50.206;9.998;2024-01-07T08:49:22;1.10;12.80
1351;DHT22;669;50.206;9.998;2024-01-07T08:51:50;1.10;13.10
1351;DHT22;669;50.206;9.998;2024-01-07T08:54:18;1.20;13.30
1351;DHT22;669;50.206;9.998;2024-01-07T08:56:46;1.20;12.00
1351;DHT22;669;50.206;9.998;2024-01-07T08:59:14;1.20;12.40
1351;DHT22;669;50.206;9.998;2024-01-07T09:01:42;1.20;13.30
1351;DHT22;669;50.206;9.998;2024-01-07T09:04:11;1.20;12.80
1351;DHT22;669;50.206;9.998;2024-01-07T09:06:39;1.20;12.00
1351;DHT22;669;50.206;9.998;2024-01-07T09:09:07;1.30;12.20
1351;DHT22;669;50.206;9.998;2024-01-07T09:11:36;1.20;11.60
1351;DHT22;669;50.206;9.998;2024-01-07T09:14:04;1.20;11.00
1351;DHT22;669;50.206;9.998;2024-01-07T09:16:32;1.20;11.20
1351;DHT22;669;50.206;9.998;2024-01-07T09:19:00;1.20;11.80
1351;DHT22;669;50.206;9.998;2024-01-07T09:21:30;1.20;11.00
1351;DHT22;669;50.206;9.998;2024-01-07T09:23:58;1.20;11.00
1351;DHT22;669;50.206;9.998;2024-01-07T09:26:26;1.20;11.00
1351;DHT22;669;50.206;9.998;2024-01-07T09:28:55;1.20;11.00
1351;DHT22;669;50.206;9.998;2024-01-07T09:31:23;1.30;11.30
1351;DHT22;669;50.206;9.998;2024-01-07T09:33:51;1.30;11.10
1351;DHT22;669;50.206;9.998;2024-01-07T09:36:19;1.30;11.10
1351;DHT22;669;50.206;9.998;2024-01-07T09:38:57;1.30;10.70
1351;DHT22;669;50.206;9.998;2024-01-07T09:41:25;1.30;10.50
1351;DHT22;669;50.206;9.998;2024-01-07T09:43:53;1.30;10.40
1351;DHT22;669;50.206;9.998;2024-01-07T09:46:22;1.30;10.10
1351;DHT22;669;50.206;9.998;2024-01-07T09:48:50;1.30;9.10
1351;DHT22;669;50.206;9.998;2024-01-07T09:51:22;1.30;9.90
1351;DHT22;669;50.206;9.998;2024-01-07T09:53:56;1.30;9.80
1351;DHT22;669;50.206;9.998;2024-01-07T09:56:29;1.30;9.40
1351;DHT22;669;50.206;9.998;2024-01-07T09:59:02;1.30;8.60
1351;DHT22;669;50.206;9.998;2024-01-07T10:01:31;1.30;9.00
1351;DHT22;669;50.206;9.998;2024-01-07T10:03:59;1.20;9.00
1351;DHT22;669;50.206;9.998;2024-01-07T10:06:27;1.20;8.70
1351;DHT22;669;50.206;9.998;2024-01-07T10:08:55;1.20;8.50
1351;DHT22;669;50.206;9.998;2024-01-07T10:11:23;1.20;8.00
1351;DHT22;669;50.206;9.998;2024-01-07T10:13:53;1.20;9.00
1351;DHT22;669;50.206;9.998;2024-01-07T10:16:21;1.20;8.40
1351;DHT22;669;50.206;9.998;2024-01-07T10:18:49;1.20;8.70
1351;DHT22;669;50.206;9.998;2024-01-07T10:21:17;1.20;8.50
1351;DHT22;669;50.206;9.998;2024-01-07T10:23:45;1.10;8.10
1351;DHT22;669;50.206;9.998;2024-01-07T10:26:14;1.10;7.40
1351;DHT22;669;50.206;9.998;2024-01-07T10:28:54;1.10;8.10
1351;DHT22;669;50.206;9.998;2024-01-07T10:31:24;1.10;7.00
1351;DHT22;669;50.206;9.998;2024-01-07T10:33:52;1.10;7.80
1351;DHT22;669;50.206;9.998;2024-01-07T10:36:20;1.10;7.60
1351;DHT22;669;50.206;9.998;2024-01-07T10:38:49;1.20;7.60
1351;DHT22;669;50.206;9.998;2024-01-07T10:41:18;1.20;7.80
1351;DHT22;669;50.206;9.998;2024-01-07T10:43:47;1.20;7.00
1351;DHT22;669;50.206;9.998;2024-01-07T10:46:17;1.20;7.00
1351;DHT22;669;50.206;9.998;2024-01-07T10:48:59;1.20;7.00
1351;DHT22;669;50.206;9.998;2024-01-07T10:51:28;1.20;7.00
1351;DHT22;669;50.206;9.998;2024-01-07T10:53:57;1.20;6.20
1351;DHT22;669;50.206;9.998;2024-01-07T10:56:29;1.20;7.10
1351;DHT22;669;50.206;9.998;2024-01-07T10:58:59;1.30;7.40
1351;DHT22;669;50.206;9.998;2024-01-07T11:01:29;1.30;7.00
1351;DHT22;669;50.206;9.998;2024-01-07T11:04:03;1.40;6.30
1351;DHT22;669;50.206;9.998;2024-01-07T11:06:38;1.40;5.90
1351;DHT22;669;50.206;9.998;2024-01-07T11:09:16;1.50;6.60
1351;DHT22;669;50.206;9.998;2024-01-07T11:11:46;1.50;5.20
1351;DHT22;669;50.206;9.998;2024-01-07T11:14:36;1.50;5.70
1351;DHT22;669;50.206;9.998;2024-01-07T11:17:07;1.50;5.20
1351;DHT22;669;50.206;9.998;2024-01-07T11:19:35;1.50;5.40
1351;DHT22;669;50.206;9.998;2024-01-07T11:22:23;1.50;5.20
1351;DHT22;669;50.206;9.998;2024-01-07T11:24:52;1.40;4.80
1351;DHT22;669;50.206;9.998;2024-01-07T11:27:21;1.40;5.00
1351;DHT22;669;50.206;9.998;2024-01-07T11:29:53;1.30;5.20
1351;DHT22;669;50.206;9.998;2024-01-07T11:32:23;1.30;4.40
1351;DHT22;669;50.206;9.998;2024-01-07T11:34:53;1.40;5.70
1351;DHT22;669;50.206;9.998;2024-01-07T11:37:23;1.40;4.90
1351;DHT22;669;50.206;9.998;2024-01-07T11:39:54;1.40;5.70
1351;DHT22;669;50.206;9.998;2024-01-07T11:42:23;1.30;4.60
1351;DHT22;669;50.206;9.998;2024-01-07T11:44:52;1.30;4.60
1351;DHT22;669;50.206;9.998;2024-01-07T11:47:23;1.30;4.90
1351;DHT22;669;50.206;9.998;2024-01-07T11:49:52;1.30;5.10
1351;DHT22;669;50.206;9.998;2024-01-07T11:52:21;1.30;5.40
1351;DHT22;669;50.206;9.998;2024-01-07T11:54:50;1.30;4.70
1351;DHT22;669;50.206;9.998;2024-01-07T11:57:18;1.30;5.70
1351;DHT22;669;50.206;9.998;2024-01-07T11:59:46;1.30;4.50
1351;DHT22;669;50.206;9.998;2024-01-07T12:02:14;1.30;4.60
1351;DHT22;669;50.206;9.998;2024-01-07T12:04:45;1.20;4.70
1351;DHT22;669;50.206;9.998;2024-01-07T12:07:13;1.20;5.60
1351;DHT22;669;50.206;9.998;2024-01-07T12:09:41;1.20;5.60
1351;DHT22;669;50.206;9.998;2024-01-07T12:12:10;1.20;4.40
1351;DHT22;669;50.206;9.998;2024-01-07T12:14:38;1.10;4.80
1351;DHT22;669;50.206;9.998;2024-01-07T12:17:08;1.10;4.80
1351;DHT22;669;50.206;9.998;2024-01-07T12:19:40;1.10;4.50
1351;DHT22;669;50.206;9.998;2024-01-07T12:22:09;1.00;4.90
1351;DHT22;669;50.206;9.998;2024-01-07T12:24:38;1.00;4.70
1351;DHT22;669;50.206;9.998;2024-01-07T12:27:06;0.90;4.40
1351;DHT22;669;50.206;9.998;2024-01-07T12:29:34;0.90;4.20
1351;DHT22;669;50.206;9.998;2024-01-07T12:32:02;0.90;4.30
1351;DHT22;669;50.206;9.998;2024-01-07T12:34:32;0.90;4.80
1351;DHT22;669;50.206;9.998;2024-01-07T12:37:00;0.90;4.70
1351;DHT22;669;50.206;9.998;2024-01-07T12:39:30;1.00;4.00
1351;DHT22;669;50.206;9.998;2024-01-07T12:41:58;1.00;3.20
1351;DHT22;669;50.206;9.998;2024-01-07T12:44:28;1.00;3.70
1351;DHT22;669;50.206;9.998;2024-01-07T12:46:56;1.00;2.80
1351;DHT22;669;50.206;9.998;2024-01-07T12:49:24;1.00;3.90
1351;DHT22;669;50.206;9.998;2024-01-07T12:51:52;0.90;2.80
1351;DHT22;669;50.206;9.998;2024-01-07T12:54:20;0.90;1.50
1351;DHT22;669;50.206;9.998;2024-01-07T12:56:51;0.70;1.00
1351;DHT22;669;50.206;9.998;2024-01-07T12:59:19;0.50;2.20
1351;DHT22;669;50.206;9.998;2024-01-07T13:01:47;0.50;3.70
1351;DHT22;669;50.206;9.998;2024-01-07T13:04:18;0.50;2.50
1351;DHT22;669;50.206;9.998;2024-01-07T13:06:47;0.50;2.00
1351;DHT22;669;50.206;9.998;2024-01-07T13:09:15;0.50;1.90
1351;DHT22;669;50.206;9.998;2024-01-07T13:11:43;0.40;1.60
1351;DHT22;669;50.206;9.998;2024-01-07T13:14:13;0.40;1.80
1351;DHT22;669;50.206;9.998;2024-01-07T13:16:40;0.50;2.50
1351;DHT22;669;50.206;9.998;2024-01-07T13:19:08;0.50;1.70
1351;DHT22;669;50.206;9.998;2024-01-07T13:21:38;0.50;1.50
1351;DHT22;669;50.206;9.998;2024-01-07T13:24:08;0.50;1.00
1351;DHT22;669;50.206;9.998;2024-01-07T13:26:37;0.40;1.00
1351;DHT22;669;50.206;9.998;2024-01-07T13:29:05;0.30;1.00
1351;DHT22;669;50.206;9.998;2024-01-07T13:31:34;0.30;1.00
1351;DHT22;669;50.206;9.998;2024-01-07T13:34:02;0.30;1.00
1351;DHT22;669;50.206;9.998;2024-01-07T13:36:30;0.20;1.00
1351;DHT22;669;50.206;9.998;2024-01-07T13:38:58;0.10;1.00
1351;DHT22;669;50.206;9.998;2024-01-07T13:41:26;0.20;1.00
1351;DHT22;669;50.206;9.998;2024-01-07T13:43:55;0.20;1.00
1351;DHT22;669;50.206;9.998;2024-01-07T13:46:24;0.20;1.00
1351;DHT22;669;50.206;9.998;2024-01-07T13:48:56;0.20;1.00
1351;DHT22;669;50.206;9.998;2024-01-07T13:51:24;0.20;1.00
1351;DHT22;669;50.206;9.998;2024-01-07T13:53:52;0.20;1.00
1351;DHT22;669;50.206;9.998;2024-01-07T13:56:20;0.20;1.00
1351;DHT22;669;50.206;9.998;2024-01-07T13:58:48;0.20;1.00
1351;DHT22;669;50.206;9.998;2024-01-07T14:01:17;0.30;1.00
1351;DHT22;669;50.206;9.998;2024-01-07T14:03:45;0.20;1.00
1351;DHT22;669;50.206;9.998;2024-01-07T14:06:15;0.20;1.00
1351;DHT22;669;50.206;9.998;2024-01-07T14:08:43;0.10;1.00
1351;DHT22;669;50.206;9.998;2024-01-07T14:11:11;0.00;1.00
1351;DHT22;669;50.206;9.998;2024-01-07T14:13:39;0.00;1.00
1351;DHT22;669;50.206;9.998;2024-01-07T14:16:07;-0.10;1.00
1351;DHT22;669;50.206;9.998;2024-01-07T14:18:35;-0.20;1.00
1351;DHT22;669;50.206;9.998;2024-01-07T14:21:03;-0.30;1.00
1351;DHT22;669;50.206;9.998;2024-01-07T14:23:33;-0.40;1.00
1351;DHT22;669;50.206;9.998;2024-01-07T14:26:02;-0.30;1.00
1351;DHT22;669;50.206;9.998;2024-01-07T14:28:30;-0.50;1.00
1351;DHT22;669;50.206;9.998;2024-01-07T14:30:58;-0.60;1.00
1351;DHT22;669;50.206;9.998;2024-01-07T14:33:26;-0.70;1.00
1351;DHT22;669;50.206;9.998;2024-01-07T14:35:55;-0.70;1.00
1351;DHT22;669;50.206;9.998;2024-01-07T14:38:22;-0.80;1.00
1351;DHT22;669;50.206;9.998;2024-01-07T14:40:53;-0.80;1.00
1351;DHT22;669;50.206;9.998;2024-01-07T14:43:22;-0.90;1.00
1351;DHT22;669;50.206;9.998;2024-01-07T14:45:50;-1.00;1.00
1351;DHT22;669;50.206;9.998;2024-01-07T14:48:19;-1.10;1.00
1351;DHT22;669;50.206;9.998;2024-01-07T14:50:47;-1.10;1.00
1351;DHT22;669;50.206;9.998;2024-01-07T14:53:15;-1.20;1.00
1351;DHT22;669;50.206;9.998;2024-01-07T14:55:43;-1.20;1.00
1351;DHT22;669;50.206;9.998;2024-01-07T14:58:12;-1.20;1.00
1351;DHT22;669;50.206;9.998;2024-01-07T15:00:40;-1.20;1.00
1351;DHT22;669;50.206;9.998;2024-01-07T15:03:08;-1.20;1.00
1351;DHT22;669;50.206;9.998;2024-01-07T15:05:36;-1.20;1.00
1351;DHT22;669;50.206;9.998;2024-01-07T15:08:05;-1.30;1.00
1351;DHT22;669;50.206;9.998;2024-01-07T15:10:33;-1.40;1.00
1351;DHT22;669;50.206;9.998;2024-01-07T15:13:01;-1.40;1.00
1351;DHT22;669;50.206;9.998;2024-01-07T15:15:44;-1.50;1.00
1351;DHT22;669;50.206;9.998;2024-01-07T15:18:12;-1.40;1.00
1351;DHT22;669;50.206;9.998;2024-01-07T15:20:40;-1.50;1.00
1351;DHT22;669;50.206;9.998;2024-01-07T15:23:08;-1.50;1.00
1351;DHT22;669;50.206;9.998;2024-01-07T15:25:36;-1.50;1.00
1351;DHT22;669;50.206;9.998;2024-01-07T15:28:05;-1.60;1.00
1351;DHT22;669;50.206;9.998;2024-01-07T15:30:33;-1.60;1.00
1351;DHT22;669;50.206;9.998;2024-01-07T15:33:03;-1.50;1.00
1351;DHT22;669;50.206;9.998;2024-01-07T15:35:31;-1.50;1.00
1351;DHT22;669;50.206;9.998;2024-01-07T15:37:59;-1.60;1.00
1351;DHT22;669;50.206;9.998;2024-01-07T15:40:27;-1.50;1.00
1351;DHT22;669;50.206;9.998;2024-01-07T15:42:56;-1.50;1.00
1351;DHT22;669;50.206;9.998;2024-01-07T15:45:24;-1.60;1.00
1351;DHT22;669;50.206;9.998;2024-01-07T15:47:52;-1.60;1.00
1351;DHT22;669;50.206;9.998;2024-01-07T15:50:22;-1.60;1.00
1351;DHT22;669;50.206;9.998;2024-01-07T15:52:49;-1.60;1.00
1351;DHT22;669;50.206;9.998;2024-01-07T15:55:17;-1.60;1.00
1351;DHT22;669;50.206;9.998;2024-01-07T15:57:46;-1.60;1.00
1351;DHT22;669;50.206;9.998;2024-01-07T16:00:14;-1.70;1.00
1351;DHT22;669;50.206;9.998;2024-01-07T16:02:42;-1.70;1.00
1351;DHT22;669;50.206;9.998;2024-01-07T16:05:12;-1.70;1.00
1351;DHT22;669;50.206;9.998;2024-01-07T16:07:42;-1.70;1.00
1351;DHT22;669;50.206;9.998;2024-01-07T16:10:10;-1.70;1.00
1351;DHT22;669;50.206;9.998;2024-01-07T16:12:39;-1.70;1.00
1351;DHT22;669;50.206;9.998;2024-01-07T16:15:07;-1.70;1.00
1351;DHT22;669;50.206;9.998;2024-01-07T16:17:35;-1.70;1.00
1351;DHT22;669;50.206;9.998;2024-01-07T16:20:04;-1.70;1.00
1351;DHT22;669;50.206;9.998;2024-01-07T16:22:32;-1.70;1.00
1351;DHT22;669;50.206;9.998;2024-01-07T16:25:01;-1.70;1.00
1351;DHT22;669;50.206;9.998;2024-01-07T16:27:30;-1.70;1.00
1351;DHT22;669;50.206;9.998;2024-01-07T16:29:59;-1.70;1.00
1351;DHT22;669;50.206;9.998;2024-01-07T16:32:27;-1.60;1.00
1351;DHT22;669;50.206;9.998;2024-01-07T16:34:55;-1.70;1.00
1351;DHT22;669;50.206;9.998;2024-01-07T16:37:23;-1.70;1.00
1351;DHT22;669;50.206;9.998;2024-01-07T16:39:52;-1.70;1.00
1351;DHT22;669;50.206;9.998;2024-01-07T16:42:21;-1.70;1.00
1351;DHT22;669;50.206;9.998;2024-01-07T16:44:49;-1.70;1.00
1351;DHT22;669;50.206;9.998;2024-01-07T16:47:17;-1.70;1.00
1351;DHT22;669;50.206;9.998;2024-01-07T16:49:45;-1.70;1.00